createdAt,value
2023-05-22T00:03:00.660Z,9.91
2023-05-22T00:08:11.751Z,9.80
2023-05-22T00:13:17.240Z,9.67
2023-05-22T00:18:23.222Z,9.61
2023-05-22T00:23:29.965Z,9.60
2023-05-22T00:28:35.654Z,9.57
2023-05-22T00:33:41.168Z,9.51
2023-05-22T00:38:48.475Z,9.41
2023-05-22T00:43:54.817Z,9.30
2023-05-22T00:49:00.285Z,9.24
2023-05-22T00:54:06.717Z,9.24
2023-05-22T00:59:12.607Z,9.22
2023-05-22T01:04:18.636Z,9.17
2023-05-22T01:09:24.713Z,9.07
2023-05-22T01:14:40.404Z,9.01
2023-05-22T01:20:07.702Z,9.07
2023-05-22T01:25:32.499Z,9.18
2023-05-22T01:30:48.079Z,9.14
2023-05-22T01:35:57.617Z,9.03
2023-05-22T01:41:04.365Z,8.95
2023-05-22T01:46:09.870Z,8.84
2023-05-22T01:51:22.142Z,8.75
2023-05-22T01:56:34.873Z,8.70
2023-05-22T02:01:41.506Z,8.69
2023-05-22T02:06:48.463Z,8.68
2023-05-22T02:11:53.969Z,8.66
2023-05-22T02:17:02.204Z,8.61
2023-05-22T02:22:09.997Z,8.52
2023-05-22T02:27:16.865Z,8.49
2023-05-22T02:32:22.527Z,8.55
2023-05-22T02:37:28.125Z,8.56
2023-05-22T02:42:34.669Z,8.53
2023-05-22T02:47:40.593Z,8.53
2023-05-22T02:52:46.410Z,8.48
2023-05-22T02:57:51.899Z,8.48
2023-05-22T03:02:57.566Z,8.54
2023-05-22T03:08:03.333Z,8.61
2023-05-22T03:13:08.974Z,8.62
2023-05-22T03:18:14.570Z,8.63
2023-05-22T03:23:21.261Z,8.69
2023-05-22T03:28:26.912Z,8.82
2023-05-22T03:33:32.376Z,9.00
2023-05-22T03:38:38.823Z,9.24
2023-05-22T03:43:45.705Z,9.52
2023-05-22T03:48:51.461Z,9.74
2023-05-22T03:53:57.218Z,9.97
2023-05-22T03:59:03.253Z,10.24
2023-05-22T04:04:09.658Z,10.52
2023-05-22T04:09:16.370Z,10.86
2023-05-22T04:14:22.257Z,11.23
2023-05-22T04:19:28.331Z,11.63
2023-05-22T04:24:34.019Z,13.50
2023-05-22T04:29:41.551Z,16.39
2023-05-22T04:34:51.225Z,17.10
2023-05-22T04:39:58.379Z,19.06
2023-05-22T04:45:04.100Z,20.47
2023-05-22T04:50:10.905Z,19.73
2023-05-22T04:55:16.975Z,19.22
2023-05-22T05:00:26.675Z,19.26
2023-05-22T05:05:33.006Z,21.84
2023-05-22T05:10:38.779Z,24.71
2023-05-22T05:15:44.845Z,26.85
2023-05-22T05:20:51.939Z,28.99
2023-05-22T05:25:58.474Z,30.72
2023-05-22T05:31:05.090Z,31.83
2023-05-22T05:36:31.706Z,32.58
2023-05-22T05:41:37.484Z,33.61
2023-05-22T05:46:47.197Z,34.91
2023-05-22T05:51:55.540Z,35.74
2023-05-22T05:57:04.264Z,35.78
2023-05-22T06:02:09.967Z,36.11
2023-05-22T06:07:16.374Z,35.32
2023-05-22T06:12:27.810Z,34.87
2023-05-22T06:17:33.939Z,33.83
2023-05-22T06:22:40.478Z,33.86
2023-05-22T06:27:47.514Z,32.81
2023-05-22T06:32:55.479Z,32.99
2023-05-22T06:38:02.131Z,34.84
2023-05-22T06:43:07.844Z,36.23
2023-05-22T06:48:22.893Z,36.24
2023-05-22T06:53:42.042Z,36.66
2023-05-22T06:58:57.338Z,37.78
2023-05-22T07:04:11.437Z,38.27
2023-05-22T07:09:32.571Z,38.72
2023-05-22T07:14:38.258Z,38.09
2023-05-22T07:19:44.352Z,37.47
2023-05-22T07:24:50.851Z,37.76
2023-05-22T07:29:57.212Z,38.52
2023-05-22T07:35:03.199Z,39.29
2023-05-22T07:40:11.596Z,39.98
2023-05-22T07:45:17.486Z,40.17
2023-05-22T07:50:26.847Z,40.15
2023-05-22T07:55:33.043Z,40.30
2023-05-22T08:00:39.430Z,40.66
2023-05-22T08:05:43.846Z,41.34
2023-05-22T08:11:03.132Z,41.46
2023-05-22T08:16:11.206Z,40.91
2023-05-22T08:21:16.237Z,38.86
2023-05-22T08:26:23.273Z,36.51
2023-05-22T08:31:29.549Z,34.00
2023-05-22T08:36:35.865Z,31.93
2023-05-22T08:41:43.804Z,30.37
2023-05-22T08:46:51.055Z,28.94
2023-05-22T08:52:03.205Z,28.31
2023-05-22T08:57:09.390Z,27.54
2023-05-22T09:02:16.611Z,27.28
2023-05-22T09:07:24.858Z,27.98
2023-05-22T09:12:31.778Z,28.04
2023-05-22T09:17:41.399Z,27.67
2023-05-22T09:22:49.164Z,27.40
2023-05-22T09:27:55.488Z,27.44
2023-05-22T09:33:01.326Z,28.23
2023-05-22T09:38:10.185Z,28.36
2023-05-22T09:43:21.581Z,28.92
2023-05-22T09:48:28.446Z,29.75
2023-05-22T09:53:35.078Z,30.69
2023-05-22T09:58:45.497Z,30.98
2023-05-22T10:03:56.490Z,30.19
2023-05-22T10:09:09.223Z,29.30
2023-05-22T10:14:15.948Z,28.61
2023-05-22T10:19:27.449Z,28.61
2023-05-22T10:24:34.867Z,28.97
2023-05-22T10:29:47.817Z,29.01
2023-05-22T10:35:04.896Z,28.86
2023-05-22T10:40:13.949Z,28.44
2023-05-22T10:45:20.111Z,27.93
2023-05-22T10:50:26.286Z,27.65
2023-05-22T10:55:32.315Z,27.64
2023-05-22T11:00:39.682Z,27.90
2023-05-22T11:05:54.579Z,28.18
2023-05-22T11:11:12.212Z,28.73
2023-05-22T11:16:19.163Z,29.50
2023-05-22T11:21:25.856Z,30.00
2023-05-22T11:26:33.674Z,29.96
2023-05-22T11:31:46.620Z,30.12
2023-05-22T11:36:57.658Z,30.39
2023-05-22T11:42:07.133Z,30.62
2023-05-22T11:47:11.682Z,30.41
2023-05-22T11:52:20.173Z,29.59
2023-05-22T11:57:26.961Z,29.09
2023-05-22T12:02:33.425Z,28.84
2023-05-22T12:07:39.570Z,28.97
2023-05-22T12:12:45.952Z,28.99
2023-05-22T12:17:56.740Z,28.39
2023-05-22T12:23:02.786Z,28.31
2023-05-22T12:28:08.718Z,28.43
2023-05-22T12:33:17.491Z,28.11
2023-05-22T12:38:27.363Z,27.42
2023-05-22T12:43:32.834Z,27.00
2023-05-22T12:48:38.351Z,26.72
2023-05-22T12:53:43.813Z,26.98
2023-05-22T12:58:49.279Z,27.13
2023-05-22T13:03:55.246Z,27.25
2023-05-22T13:09:00.964Z,27.24
2023-05-22T13:14:06.743Z,27.35
2023-05-22T13:19:12.232Z,27.36
2023-05-22T13:24:17.704Z,27.21
2023-05-22T13:29:23.233Z,27.24
2023-05-22T13:34:29.313Z,27.02
2023-05-22T13:39:35.343Z,26.94
2023-05-22T13:44:40.834Z,26.68
2023-05-22T13:49:46.660Z,26.37
2023-05-22T13:54:52.101Z,25.83
2023-05-22T13:59:57.621Z,25.21
2023-05-22T14:05:03.178Z,24.70
2023-05-22T14:10:10.632Z,24.42
2023-05-22T14:15:17.732Z,24.07
2023-05-22T14:20:23.346Z,23.83
2023-05-22T14:25:28.814Z,23.63
2023-05-22T14:30:34.274Z,23.54
2023-05-22T14:35:40.124Z,23.37
2023-05-22T14:40:46.071Z,23.47
2023-05-22T14:45:51.613Z,23.64
2023-05-22T14:50:57.402Z,23.77
2023-05-22T14:56:03.393Z,23.90
2023-05-22T15:01:08.874Z,23.88
2023-05-22T15:06:14.486Z,23.82
2023-05-22T15:11:19.882Z,23.78
2023-05-22T15:16:26.114Z,23.65
2023-05-22T15:21:31.671Z,23.53
2023-05-22T15:26:37.302Z,23.42
2023-05-22T15:31:42.833Z,23.41
2023-05-22T15:36:48.431Z,23.33
2023-05-22T15:42:05.215Z,23.27
2023-05-22T15:47:16.936Z,23.19
2023-05-22T15:52:24.643Z,23.20
2023-05-22T15:57:30.190Z,23.19
2023-05-22T16:02:36.440Z,23.10
2023-05-22T16:07:42.280Z,22.99
2023-05-22T16:12:47.890Z,22.93
2023-05-22T16:17:54.579Z,22.84
2023-05-22T16:23:00.346Z,22.76
2023-05-22T16:28:05.867Z,22.69
2023-05-22T16:33:12.305Z,22.66
2023-05-22T16:38:17.834Z,22.56
2023-05-22T16:43:23.325Z,22.40
2023-05-22T16:48:28.970Z,22.27
2023-05-22T16:53:36.139Z,22.14
2023-05-22T16:58:44.004Z,21.99
2023-05-22T17:03:49.726Z,21.77
2023-05-22T17:08:56.062Z,21.48
2023-05-22T17:14:02.110Z,21.31
2023-05-22T17:19:07.542Z,21.16
2023-05-22T17:24:14.876Z,21.04
2023-05-22T17:29:20.835Z,20.90
2023-05-22T17:34:26.423Z,20.71
2023-05-22T17:39:32.039Z,20.48
2023-05-22T17:44:37.396Z,20.30
2023-05-22T17:49:43.069Z,20.15
2023-05-22T17:54:49.933Z,19.96
2023-05-22T17:59:55.318Z,19.74
2023-05-22T18:05:01.237Z,19.47
2023-05-22T18:10:08.605Z,19.19
2023-05-22T18:15:14.304Z,18.89
2023-05-22T18:20:20.129Z,18.65
2023-05-22T18:25:25.815Z,18.34
2023-05-22T18:30:32.345Z,18.02
2023-05-22T18:35:38.176Z,17.69
2023-05-22T18:40:44.797Z,17.39
2023-05-22T18:45:50.935Z,17.09
2023-05-22T18:50:57.856Z,16.79
2023-05-22T18:56:03.490Z,16.51
2023-05-22T19:01:10.426Z,16.24
2023-05-22T19:06:16.199Z,15.97
2023-05-22T19:11:23.906Z,15.70
2023-05-22T19:16:30.615Z,15.44
2023-05-22T19:21:35.966Z,15.18
2023-05-22T19:26:42.026Z,14.93
2023-05-22T19:31:47.548Z,14.72
2023-05-22T19:36:57.586Z,14.49
2023-05-22T19:42:03.294Z,14.22
2023-05-22T19:47:10.790Z,13.99
2023-05-22T19:52:17.679Z,13.83
2023-05-22T19:57:23.234Z,13.67
2023-05-22T20:02:28.834Z,13.55
2023-05-22T20:07:34.594Z,13.41
2023-05-22T20:12:40.183Z,13.27
2023-05-22T20:17:51.924Z,13.18
2023-05-22T20:22:59.180Z,13.12
2023-05-22T20:28:05.683Z,13.02
2023-05-22T20:33:11.910Z,12.91
2023-05-22T20:38:19.051Z,12.73
2023-05-22T20:43:26.177Z,12.54
2023-05-22T20:48:31.749Z,12.45
2023-05-22T20:53:37.245Z,12.32
2023-05-22T20:58:42.805Z,12.20
2023-05-22T21:03:50.070Z,12.15
2023-05-22T21:08:59.753Z,12.16
2023-05-22T21:14:05.330Z,12.12
2023-05-22T21:19:10.802Z,11.98
2023-05-22T21:24:16.192Z,11.83
2023-05-22T21:29:21.610Z,11.74
2023-05-22T21:34:26.934Z,11.61
2023-05-22T21:39:32.437Z,11.46
2023-05-22T21:44:37.911Z,11.38
2023-05-22T21:49:43.315Z,11.32
2023-05-22T21:54:48.744Z,11.33
2023-05-22T21:59:54.266Z,11.30
2023-05-22T22:04:59.686Z,11.13
2023-05-22T22:10:06.080Z,10.98
2023-05-22T22:15:14.143Z,10.92
2023-05-22T22:20:30.314Z,10.86
2023-05-22T22:25:39.947Z,10.79
2023-05-22T22:30:45.654Z,10.72
2023-05-22T22:35:51.428Z,10.62
2023-05-22T22:40:56.865Z,10.51
2023-05-22T22:46:02.250Z,10.44
2023-05-22T22:51:07.747Z,10.43
2023-05-22T22:56:13.341Z,10.40
2023-05-22T23:01:18.708Z,10.34
2023-05-22T23:06:24.308Z,10.25
2023-05-22T23:11:37.296Z,10.15
2023-05-22T23:16:42.881Z,10.08
2023-05-22T23:21:48.605Z,9.96
2023-05-22T23:26:53.962Z,9.87
2023-05-22T23:31:59.649Z,9.86
2023-05-22T23:37:05.411Z,9.82
2023-05-22T23:42:11.979Z,9.75
2023-05-22T23:47:18.745Z,9.69
2023-05-22T23:52:24.190Z,9.68
2023-05-22T23:57:29.542Z,9.68
